Terminal Aerodrome Forecast
Issued by NWS

Home | Current Version | Previous Version | Text Only | Print | Product List | Glossary On
Versions: 1 2 3 4 5 6 7 8 9 10 11 12 13 14 15 16 17 18 19 20
000
FTUS43 KJKL 241447 AAB
TAFSME
TAF AMD
KSME 241447Z 2415/2512 VRB05KT 5SM -SHRA VCTS BKN004 OVC010CB
      TEMPO 2415/2417 VRB15KT 1 1/2SM -TSRA BR BKN008CB OVC020
     FM241700 VRB03KT 3SM SHRA BR VCTS SCT010 OVC025CB
     FM242300 26008KT P6SM VCSH OVC025=

USA.gov is the U.S. government's official web portal to all federal, state and local government web resources and services.